createdAt,value
2022-11-20T00:02:15.249Z,102229.27
2022-11-20T00:04:47.796Z,102228.06
2022-11-20T00:07:16.896Z,102224.17
2022-11-20T00:09:46.562Z,102221.45
2022-11-20T00:12:16.011Z,102217.49
2022-11-20T00:14:49.364Z,102218.19
2022-11-20T00:17:18.565Z,102215.35
2022-11-20T00:19:48.187Z,102215.16
2022-11-20T00:22:17.987Z,102219.93
2022-11-20T00:24:47.573Z,102217.02
2022-11-20T00:27:16.946Z,102219.98
2022-11-20T00:29:46.486Z,102214.44
2022-11-20T00:32:15.965Z,102215.25
2022-11-20T00:34:45.443Z,102217.30
2022-11-20T00:37:14.675Z,102221.09
2022-11-20T00:39:44.712Z,102220.13
2022-11-20T00:42:14.248Z,102219.42
2022-11-20T00:44:43.591Z,102218.94
2022-11-20T00:47:13.431Z,102216.98
2022-11-20T00:49:42.973Z,102221.49
2022-11-20T00:52:12.144Z,102216.17
2022-11-20T00:54:41.834Z,102219.83
2022-11-20T00:57:11.097Z,102216.02
2022-11-20T00:59:40.961Z,102217.67
2022-11-20T01:02:10.779Z,102218.30
2022-11-20T01:04:41.207Z,102220.99
2022-11-20T01:07:10.524Z,102221.50
2022-11-20T01:09:39.797Z,102222.88
2022-11-20T01:12:09.259Z,102219.56
2022-11-20T01:14:38.829Z,102222.15
2022-11-20T01:17:11.522Z,102220.79
2022-11-20T01:19:40.731Z,102225.63
2022-11-20T01:22:10.205Z,102223.83
2022-11-20T01:24:39.885Z,102226.70
2022-11-20T01:27:09.414Z,102226.05
2022-11-20T01:29:38.699Z,102223.02
2022-11-20T01:32:08.063Z,102223.67
2022-11-20T01:34:37.435Z,102228.56
2022-11-20T01:37:06.888Z,102227.25
2022-11-20T01:39:36.667Z,102226.71
2022-11-20T01:42:24.596Z,102229.25
2022-11-20T01:44:54.829Z,102235.20
2022-11-20T01:47:36.838Z,102235.80
2022-11-20T01:50:31.373Z,102237.10
2022-11-20T01:53:17.028Z,102242.52
2022-11-20T01:55:53.355Z,102244.63
2022-11-20T01:58:27.124Z,102246.96
2022-11-20T02:00:57.122Z,102249.72
2022-11-20T02:03:27.277Z,102248.85
2022-11-20T02:06:13.532Z,102252.70
2022-11-20T02:08:43.024Z,102255.55
2022-11-20T02:11:12.430Z,102258.23
2022-11-20T02:13:45.929Z,102253.64
2022-11-20T02:16:18.513Z,102265.11
2022-11-20T02:18:48.879Z,102263.23
2022-11-20T02:21:39.720Z,102261.59
2022-11-20T02:24:15.894Z,102263.73
2022-11-20T02:26:58.716Z,102261.52
2022-11-20T02:29:51.140Z,102264.08
2022-11-20T02:32:34.138Z,102260.80
2022-11-20T02:35:23.292Z,102258.37
2022-11-20T02:37:56.693Z,102258.97
2022-11-20T02:40:26.201Z,102261.21
2022-11-20T02:43:16.016Z,102264.86
2022-11-20T02:45:45.319Z,102277.32
2022-11-20T02:48:14.641Z,102273.98
2022-11-20T02:50:44.689Z,102278.46
2022-11-20T02:53:14.213Z,102272.80
2022-11-20T02:55:43.682Z,102273.52
2022-11-20T02:58:13.416Z,102273.21
2022-11-20T03:00:42.971Z,102273.77
2022-11-20T03:03:13.072Z,102268.80
2022-11-20T03:05:42.972Z,102271.88
2022-11-20T03:08:12.870Z,102271.02
2022-11-20T03:10:43.247Z,102270.05
2022-11-20T03:13:15.854Z,102274.47
2022-11-20T03:15:45.195Z,102272.52
2022-11-20T03:18:16.878Z,102274.23
2022-11-20T03:20:46.352Z,102273.41
2022-11-20T03:23:15.818Z,102276.71
2022-11-20T03:25:45.113Z,102278.38
2022-11-20T03:28:14.782Z,102275.20
2022-11-20T03:30:44.321Z,102281.39
2022-11-20T03:33:14.219Z,102284.42
2022-11-20T03:35:43.770Z,102277.13
2022-11-20T03:38:13.382Z,102277.58
2022-11-20T03:40:49.188Z,102279.25
2022-11-20T03:43:18.504Z,102281.02
2022-11-20T03:45:48.123Z,102278.55
2022-11-20T03:48:17.731Z,102279.83
2022-11-20T03:50:49.442Z,102276.64
2022-11-20T03:53:19.294Z,102278.44
2022-11-20T03:55:53.071Z,102279.71
2022-11-20T03:58:22.914Z,102280.97
2022-11-20T04:00:52.802Z,102276.20
2022-11-20T04:03:22.841Z,102280.11
2022-11-20T04:05:52.481Z,102281.45
2022-11-20T04:08:21.853Z,102283.67
2022-11-20T04:10:51.516Z,102281.42
2022-11-20T04:13:21.171Z,102281.09
2022-11-20T04:15:50.565Z,102274.02
2022-11-20T04:18:20.116Z,102279.20
2022-11-20T04:20:49.583Z,102283.95
2022-11-20T04:23:18.855Z,102287.86
2022-11-20T04:25:48.537Z,102285.74
2022-11-20T04:28:18.085Z,102292.38
2022-11-20T04:30:47.927Z,102289.23
2022-11-20T04:33:19.004Z,102295.09
2022-11-20T04:35:50.175Z,102292.01
2022-11-20T04:38:20.262Z,102294.96
2022-11-20T04:40:49.988Z,102295.11
2022-11-20T04:43:19.170Z,102301.34
2022-11-20T04:45:53.801Z,102301.53
2022-11-20T04:48:24.816Z,102304.02
2022-11-20T04:50:55.057Z,102300.20
2022-11-20T04:53:25.585Z,102300.56
2022-11-20T04:56:01.245Z,102303.99
2022-11-20T04:58:30.998Z,102304.86
2022-11-20T05:01:20.961Z,102308.73
2022-11-20T05:03:51.141Z,102311.31
2022-11-20T05:06:22.877Z,102311.77
2022-11-20T05:08:52.324Z,102315.14
2022-11-20T05:11:25.080Z,102313.74
2022-11-20T05:13:55.636Z,102314.55
2022-11-20T05:16:27.144Z,102313.62
2022-11-20T05:18:57.589Z,102309.50
2022-11-20T05:21:27.321Z,102311.25
2022-11-20T05:24:00.516Z,102311.69
2022-11-20T05:26:29.952Z,102312.41
2022-11-20T05:28:59.723Z,102314.69
2022-11-20T05:31:30.496Z,102315.70
2022-11-20T05:34:00.732Z,102312.46
2022-11-20T05:36:30.717Z,102311.45
2022-11-20T05:39:01.922Z,102312.02
2022-11-20T05:41:31.805Z,102312.39
2022-11-20T05:44:01.113Z,102316.14
2022-11-20T05:46:30.604Z,102315.69
2022-11-20T05:49:00.669Z,102315.98
2022-11-20T05:51:30.550Z,102320.33
2022-11-20T05:54:00.737Z,102319.88
2022-11-20T05:56:31.141Z,102317.95
2022-11-20T05:59:01.539Z,102315.03
2022-11-20T06:01:31.335Z,102316.38
2022-11-20T06:04:01.157Z,102319.79
2022-11-20T06:06:30.706Z,102315.10
2022-11-20T06:09:01.200Z,102314.86
2022-11-20T06:11:31.181Z,102314.55
2022-11-20T06:14:00.981Z,102312.79
2022-11-20T06:16:31.787Z,102310.40
2022-11-20T06:19:01.525Z,102308.25
2022-11-20T06:21:31.527Z,102309.16
2022-11-20T06:24:01.131Z,102309.60
2022-11-20T06:26:30.909Z,102316.39
2022-11-20T06:29:01.131Z,102316.09
2022-11-20T06:31:31.594Z,102315.11
2022-11-20T06:34:01.465Z,102308.72
2022-11-20T06:36:31.496Z,102309.73
2022-11-20T06:39:01.170Z,102309.01
2022-11-20T06:41:30.773Z,102315.79
2022-11-20T06:44:00.117Z,102319.05
2022-11-20T06:46:29.300Z,102320.66
2022-11-20T06:49:00.153Z,102320.46
2022-11-20T06:51:29.784Z,102319.95
2022-11-20T06:53:59.672Z,102318.03
2022-11-20T06:56:28.754Z,102321.75
2022-11-20T06:58:58.171Z,102325.56
2022-11-20T07:01:28.036Z,102325.38
2022-11-20T07:03:57.974Z,102327.59
2022-11-20T07:06:27.527Z,102336.77
2022-11-20T07:08:57.284Z,102335.84
2022-11-20T07:11:26.682Z,102338.84
2022-11-20T07:13:56.649Z,102339.09
2022-11-20T07:16:27.390Z,102342.03
2022-11-20T07:18:57.215Z,102342.79
2022-11-20T07:21:26.979Z,102346.72
2022-11-20T07:23:57.533Z,102345.23
2022-11-20T07:26:27.365Z,102341.70
2022-11-20T07:28:57.102Z,102344.99
2022-11-20T07:31:27.144Z,102343.23
2022-11-20T07:33:56.821Z,102345.30
2022-11-20T07:36:26.282Z,102349.52
2022-11-20T07:38:56.648Z,102353.05
2022-11-20T07:41:26.518Z,102353.02
2022-11-20T07:43:56.219Z,102357.08
2022-11-20T07:46:25.926Z,102354.92
2022-11-20T07:48:55.964Z,102354.92
2022-11-20T07:51:26.315Z,102356.57
2022-11-20T07:53:56.146Z,102355.99
2022-11-20T07:56:26.667Z,102349.06
2022-11-20T07:58:56.655Z,102348.55
2022-11-20T08:01:26.294Z,102344.54
2022-11-20T08:03:56.849Z,102341.44
2022-11-20T08:06:26.832Z,102333.60
2022-11-20T08:08:56.429Z,102338.89
2022-11-20T08:11:44.337Z,102345.23
2022-11-20T08:14:16.228Z,102342.77
2022-11-20T08:16:50.609Z,102344.17
2022-11-20T08:19:21.136Z,102350.64
2022-11-20T08:21:53.476Z,102356.09
2022-11-20T08:24:23.111Z,102356.91
2022-11-20T08:26:53.493Z,102357.47
2022-11-20T08:29:24.193Z,102353.29
2022-11-20T08:31:54.494Z,102347.75
2022-11-20T08:34:24.028Z,102347.37
2022-11-20T08:36:53.388Z,102344.11
2022-11-20T08:39:22.857Z,102342.23
2022-11-20T08:41:55.639Z,102338.47
2022-11-20T08:44:25.258Z,102337.39
2022-11-20T08:49:36.932Z,102335.16
2022-11-20T08:52:06.589Z,102327.48
2022-11-20T08:54:38.739Z,102326.65
2022-11-20T08:57:07.841Z,102324.66
2022-11-20T09:00:04.424Z,102327.14
2022-11-20T09:02:29.492Z,102328.33
2022-11-20T09:04:58.695Z,102323.95
2022-11-20T09:07:27.952Z,102327.73
2022-11-20T09:10:22.653Z,102325.76
2022-11-20T09:12:53.838Z,102321.45
2022-11-20T09:15:23.775Z,102320.42
2022-11-20T09:18:01.024Z,102324.79
2022-11-20T09:20:31.100Z,102324.95
2022-11-20T09:23:01.113Z,102324.05
2022-11-20T09:25:30.639Z,102321.19
2022-11-20T09:28:00.994Z,102321.55
2022-11-20T09:30:30.310Z,102321.73
2022-11-20T09:32:59.573Z,102321.54
2022-11-20T09:35:29.961Z,102324.30
2022-11-20T09:37:59.517Z,102328.41
2022-11-20T09:40:32.507Z,102329.10
2022-11-20T09:43:17.548Z,102331.54
2022-11-20T09:45:50.494Z,102331.27
2022-11-20T09:48:40.243Z,102331.23
2022-11-20T09:51:43.461Z,102331.52
2022-11-20T09:54:19.683Z,102329.11
2022-11-20T09:57:05.537Z,102324.86
2022-11-20T09:59:58.321Z,102319.41
2022-11-20T10:02:40.940Z,102315.80
2022-11-20T10:05:26.107Z,102316.50
2022-11-20T10:08:25.473Z,102317.99
2022-11-20T10:11:07.488Z,102322.56
2022-11-20T10:13:55.533Z,102326.36
2022-11-20T10:16:28.047Z,102327.82
2022-11-20T10:19:09.676Z,102331.38
2022-11-20T10:22:03.670Z,102332.39
2022-11-20T10:25:07.266Z,102337.88
2022-11-20T10:27:58.448Z,102339.44
2022-11-20T10:30:28.170Z,102343.69
2022-11-20T10:33:22.839Z,102345.91
2022-11-20T10:36:06.811Z,102341.19
2022-11-20T10:38:46.522Z,102339.30
2022-11-20T10:41:33.090Z,102346.92
2022-11-20T10:44:45.349Z,102345.04
2022-11-20T10:47:20.418Z,102350.33
2022-11-20T10:49:55.374Z,102350.54
2022-11-20T10:53:01.567Z,102356.04
2022-11-20T10:55:37.184Z,102352.66
2022-11-20T10:58:36.910Z,102354.30
2022-11-20T11:01:18.069Z,102354.45
2022-11-20T11:03:47.897Z,102355.27
2022-11-20T11:06:30.022Z,102361.49
2022-11-20T11:09:05.300Z,102359.95
2022-11-20T11:11:36.524Z,102361.00
2022-11-20T11:14:17.505Z,102361.31
2022-11-20T11:17:00.376Z,102362.70
2022-11-20T11:19:30.157Z,102363.95
2022-11-20T11:21:59.620Z,102364.67
2022-11-20T11:24:42.185Z,102361.13
2022-11-20T11:27:19.623Z,102359.98
2022-11-20T11:29:49.636Z,102366.29
2022-11-20T11:32:22.899Z,102365.05
2022-11-20T11:35:09.622Z,102363.80
2022-11-20T11:37:40.647Z,102353.22
2022-11-20T11:40:23.902Z,102344.27
2022-11-20T11:43:07.924Z,102347.06
2022-11-20T11:45:37.784Z,102341.71
2022-11-20T11:48:10.811Z,102346.05
2022-11-20T11:50:51.608Z,102347.45
2022-11-20T11:53:23.568Z,102348.38
2022-11-20T11:56:16.375Z,102344.52
2022-11-20T11:58:49.186Z,102348.19
2022-11-20T12:01:41.034Z,102348.46
2022-11-20T12:04:16.342Z,102358.00
2022-11-20T12:06:51.807Z,102359.31
2022-11-20T12:09:27.591Z,102361.98
2022-11-20T12:12:14.028Z,102361.39
2022-11-20T12:14:48.366Z,102358.66
2022-11-20T12:17:18.224Z,102351.20
2022-11-20T12:19:47.673Z,102347.81
2022-11-20T12:22:31.682Z,102343.42
2022-11-20T12:25:27.419Z,102341.62
2022-11-20T12:28:35.839Z,102342.73
2022-11-20T12:31:17.792Z,102353.05
2022-11-20T12:33:49.679Z,102361.77
2022-11-20T12:36:25.185Z,102365.91
2022-11-20T12:39:04.366Z,102369.69
2022-11-20T12:42:10.355Z,102369.93
2022-11-20T12:45:13.766Z,102374.11
2022-11-20T12:47:53.539Z,102378.09
2022-11-20T12:50:26.164Z,102378.94
2022-11-20T12:53:11.094Z,102377.84
2022-11-20T12:56:05.002Z,102371.86
2022-11-20T12:59:02.348Z,102367.74
2022-11-20T13:01:44.750Z,102364.83
2022-11-20T13:05:04.183Z,102359.86
2022-11-20T13:07:35.495Z,102361.16
2022-11-20T13:10:11.704Z,102365.42
2022-11-20T13:12:59.482Z,102361.13
2022-11-20T13:15:51.610Z,102365.55
2022-11-20T13:18:23.899Z,102375.52
2022-11-20T13:20:53.975Z,102371.66
2022-11-20T13:23:30.366Z,102371.41
2022-11-20T13:26:29.135Z,102373.84
2022-11-20T13:29:23.193Z,102369.79
2022-11-20T13:31:52.157Z,102368.01
2022-11-20T13:34:31.558Z,102365.28
2022-11-20T13:37:05.873Z,102370.89
2022-11-20T13:39:37.983Z,102373.91
2022-11-20T13:42:30.083Z,102374.45
2022-11-20T13:45:11.423Z,102375.70
2022-11-20T13:47:49.492Z,102377.89
2022-11-20T13:50:19.089Z,102380.73
2022-11-20T13:53:05.628Z,102377.59
2022-11-20T13:55:57.373Z,102374.23
2022-11-20T13:59:05.976Z,102373.69
2022-11-20T14:01:37.408Z,102374.17
2022-11-20T14:04:11.627Z,102368.08
2022-11-20T14:06:49.492Z,102366.05
2022-11-20T14:09:33.464Z,102364.36
2022-11-20T14:12:03.802Z,102359.63
2022-11-20T14:14:35.236Z,102357.03
2022-11-20T14:17:20.404Z,102353.98
2022-11-20T14:19:51.683Z,102351.75
2022-11-20T14:22:27.826Z,102351.27
2022-11-20T14:25:24.160Z,102349.55
2022-11-20T14:27:58.087Z,102349.95
2022-11-20T14:30:38.228Z,102352.23
2022-11-20T14:33:07.839Z,102357.85
2022-11-20T14:35:47.987Z,102358.48
2022-11-20T14:38:23.644Z,102356.88
2022-11-20T14:40:53.910Z,102361.14
2022-11-20T14:43:26.949Z,102364.35
2022-11-20T14:46:15.879Z,102364.17
2022-11-20T14:48:55.841Z,102360.61
2022-11-20T14:51:33.991Z,102358.26
2022-11-20T14:54:19.049Z,102353.89
2022-11-20T14:57:02.753Z,102352.64
2022-11-20T14:59:34.478Z,102348.09
2022-11-20T15:02:07.188Z,102352.67
2022-11-20T15:04:47.387Z,102354.05
2022-11-20T15:07:27.642Z,102356.39
2022-11-20T15:10:11.250Z,102357.08
2022-11-20T15:13:02.757Z,102358.50
2022-11-20T15:15:52.194Z,102362.48
2022-11-20T15:18:30.868Z,102367.89
2022-11-20T15:21:03.733Z,102373.17
2022-11-20T15:23:33.823Z,102379.52
2022-11-20T15:26:03.629Z,102382.56
2022-11-20T15:28:47.073Z,102388.49
2022-11-20T15:31:18.193Z,102393.45
2022-11-20T15:33:48.137Z,102392.55
2022-11-20T15:36:18.029Z,102393.13
2022-11-20T15:38:47.549Z,102393.00
2022-11-20T15:41:16.810Z,102390.33
2022-11-20T15:43:47.026Z,102390.31
2022-11-20T15:46:20.192Z,102392.41
2022-11-20T15:48:56.624Z,102397.41
2022-11-20T15:51:38.455Z,102407.23
2022-11-20T15:54:27.882Z,102402.61
2022-11-20T15:56:57.396Z,102405.80
2022-11-20T15:59:26.829Z,102410.89
2022-11-20T16:01:56.355Z,102413.52
2022-11-20T16:04:26.700Z,102416.86
2022-11-20T16:06:56.521Z,102412.62
2022-11-20T16:09:26.157Z,102413.62
2022-11-20T16:11:56.239Z,102413.68
2022-11-20T16:14:44.516Z,102408.67
2022-11-20T16:17:14.154Z,102410.47
2022-11-20T16:19:43.279Z,102415.27
2022-11-20T16:22:13.894Z,102417.39
2022-11-20T16:24:43.425Z,102415.82
2022-11-20T16:27:13.115Z,102416.35
2022-11-20T16:29:42.455Z,102421.10
2022-11-20T16:32:12.022Z,102428.18
2022-11-20T16:34:41.313Z,102433.08
2022-11-20T16:37:10.643Z,102432.69
2022-11-20T16:39:40.032Z,102434.92
2022-11-20T16:42:09.305Z,102434.56
2022-11-20T16:44:38.644Z,102440.97
2022-11-20T16:47:09.152Z,102445.65
2022-11-20T16:49:38.239Z,102453.41
2022-11-20T16:52:07.747Z,102458.85
2022-11-20T16:54:37.066Z,102457.10
2022-11-20T16:57:06.827Z,102457.49
2022-11-20T16:59:39.204Z,102457.71
2022-11-20T17:02:09.027Z,102456.72
2022-11-20T17:04:38.920Z,102451.33
2022-11-20T17:07:08.628Z,102449.89
2022-11-20T17:09:38.824Z,102446.15
2022-11-20T17:12:08.632Z,102441.82
2022-11-20T17:14:38.525Z,102443.28
2022-11-20T17:17:07.782Z,102444.42
2022-11-20T17:19:37.517Z,102446.91
2022-11-20T17:22:06.961Z,102444.09
2022-11-20T17:24:36.620Z,102444.66
2022-11-20T17:27:06.650Z,102446.74
2022-11-20T17:29:41.787Z,102441.30
2022-11-20T17:32:11.502Z,102437.91
2022-11-20T17:34:40.749Z,102436.52
2022-11-20T17:37:10.364Z,102439.50
2022-11-20T17:39:41.023Z,102435.42
2022-11-20T17:42:28.155Z,102444.51
2022-11-20T17:44:59.698Z,102440.45
2022-11-20T17:47:29.379Z,102445.06
2022-11-20T17:49:59.209Z,102446.55
2022-11-20T17:52:28.887Z,102445.59
2022-11-20T17:54:58.779Z,102446.09
2022-11-20T17:57:46.988Z,102444.17
2022-11-20T18:00:18.431Z,102441.60
2022-11-20T18:02:47.512Z,102445.64
2022-11-20T18:05:17.271Z,102445.41
2022-11-20T18:07:46.988Z,102445.44
2022-11-20T18:10:17.211Z,102452.38
2022-11-20T18:12:47.169Z,102450.86
2022-11-20T18:15:16.948Z,102453.15
2022-11-20T18:17:46.909Z,102456.12
2022-11-20T18:20:36.547Z,102454.27
2022-11-20T18:23:06.002Z,102453.66
2022-11-20T18:25:35.978Z,102450.61
2022-11-20T18:28:05.710Z,102452.05
2022-11-20T18:30:35.194Z,102454.44
2022-11-20T18:33:04.673Z,102458.47
2022-11-20T18:35:34.281Z,102461.36
2022-11-20T18:38:03.860Z,102453.36
2022-11-20T18:40:33.689Z,102450.51
2022-11-20T18:43:20.903Z,102448.60
2022-11-20T18:45:50.402Z,102449.59
2022-11-20T18:48:19.604Z,102450.35
2022-11-20T18:50:49.402Z,102444.15
2022-11-20T18:53:18.798Z,102444.62
2022-11-20T18:55:48.327Z,102445.23
2022-11-20T18:58:18.012Z,102441.92
2022-11-20T19:00:47.391Z,102442.08
2022-11-20T19:03:18.014Z,102434.83
2022-11-20T19:05:47.120Z,102431.17
2022-11-20T19:08:16.303Z,102428.64
2022-11-20T19:10:45.673Z,102422.43
2022-11-20T19:13:17.755Z,102427.33
2022-11-20T19:15:47.108Z,102426.30
2022-11-20T19:18:16.717Z,102422.92
2022-11-20T19:20:46.265Z,102416.70
2022-11-20T19:23:15.715Z,102414.63
2022-11-20T19:25:44.984Z,102411.68
2022-11-20T19:28:14.960Z,102406.61
2022-11-20T19:30:44.127Z,102408.38
2022-11-20T19:33:13.780Z,102405.16
2022-11-20T19:35:42.961Z,102403.38
2022-11-20T19:38:12.621Z,102407.79
2022-11-20T19:40:42.587Z,102410.81
2022-11-20T19:43:11.785Z,102416.24
2022-11-20T19:45:41.253Z,102417.16
2022-11-20T19:48:10.565Z,102414.34
2022-11-20T19:50:40.412Z,102411.70
2022-11-20T19:53:09.657Z,102413.77
2022-11-20T19:55:38.870Z,102414.13
2022-11-20T19:58:08.617Z,102404.83
2022-11-20T20:00:38.293Z,102406.79
2022-11-20T20:03:08.005Z,102407.52
2022-11-20T20:05:37.494Z,102411.92
2022-11-20T20:08:06.977Z,102409.83
2022-11-20T20:10:36.653Z,102411.34
2022-11-20T20:13:06.255Z,102406.17
2022-11-20T20:15:35.811Z,102402.87
2022-11-20T20:18:05.588Z,102399.98
2022-11-20T20:20:35.079Z,102395.86
2022-11-20T20:23:08.086Z,102381.60
2022-11-20T20:25:39.484Z,102370.30
2022-11-20T20:28:09.035Z,102374.10
2022-11-20T20:30:38.533Z,102373.95
2022-11-20T20:33:08.266Z,102380.00
2022-11-20T20:35:41.003Z,102379.33
2022-11-20T20:38:10.980Z,102377.13
2022-11-20T20:40:40.407Z,102369.71
2022-11-20T20:43:09.968Z,102368.54
2022-11-20T20:45:39.432Z,102373.23
2022-11-20T20:48:08.648Z,102371.23
2022-11-20T20:50:38.586Z,102370.73
2022-11-20T20:53:12.221Z,102365.88
2022-11-20T20:55:41.538Z,102361.70
2022-11-20T20:58:11.110Z,102357.59
2022-11-20T21:00:41.515Z,102354.86
2022-11-20T21:03:11.427Z,102358.21
2022-11-20T21:05:41.138Z,102353.98
2022-11-20T21:08:22.770Z,102345.27
2022-11-20T21:11:13.377Z,102339.91
2022-11-20T21:13:43.989Z,102334.16
2022-11-20T21:16:14.604Z,102329.98
2022-11-20T21:18:44.231Z,102332.45
2022-11-20T21:21:37.492Z,102326.52
2022-11-20T21:24:07.386Z,102325.92
2022-11-20T21:26:37.138Z,102321.99
2022-11-20T21:29:06.731Z,102321.02
2022-11-20T21:31:36.645Z,102322.96
2022-11-20T21:34:08.541Z,102322.02
2022-11-20T21:36:37.671Z,102322.42
2022-11-20T21:39:06.808Z,102319.45
2022-11-20T21:41:36.291Z,102319.61
2022-11-20T21:44:30.241Z,102317.27
2022-11-20T21:46:56.341Z,102315.68
2022-11-20T21:49:26.035Z,102315.91
2022-11-20T21:51:56.091Z,102316.45
2022-11-20T21:54:26.036Z,102313.70
2022-11-20T21:56:55.787Z,102315.54
2022-11-20T21:59:25.548Z,102314.84
2022-11-20T22:01:55.213Z,102312.92
2022-11-20T22:04:25.742Z,102307.35
2022-11-20T22:06:55.257Z,102300.05
2022-11-20T22:09:24.638Z,102301.66
2022-11-20T22:11:53.744Z,102295.95
2022-11-20T22:14:23.949Z,102290.20
2022-11-20T22:16:54.750Z,102285.85
2022-11-20T22:19:25.772Z,102287.21
2022-11-20T22:21:54.877Z,102284.59
2022-11-20T22:24:25.317Z,102283.67
2022-11-20T22:26:55.290Z,102288.95
2022-11-20T22:29:24.733Z,102283.29
2022-11-20T22:31:54.496Z,102281.44
2022-11-20T22:34:24.355Z,102281.48
2022-11-20T22:36:54.055Z,102283.73
2022-11-20T22:39:24.109Z,102280.59
2022-11-20T22:41:53.779Z,102281.11
2022-11-20T22:44:23.971Z,102279.05
2022-11-20T22:46:53.925Z,102280.94
2022-11-20T22:49:23.366Z,102289.58
2022-11-20T22:51:52.677Z,102293.89
2022-11-20T22:54:22.278Z,102294.92
2022-11-20T22:56:51.828Z,102295.59
2022-11-20T22:59:21.225Z,102295.76
2022-11-20T23:01:50.526Z,102296.20
2022-11-20T23:04:20.210Z,102302.05
2022-11-20T23:06:49.981Z,102303.53
2022-11-20T23:09:19.112Z,102299.70
2022-11-20T23:11:48.375Z,102299.29
2022-11-20T23:14:19.262Z,102298.20
2022-11-20T23:16:51.186Z,102295.02
2022-11-20T23:19:20.938Z,102294.08
2022-11-20T23:21:50.792Z,102290.16
2022-11-20T23:24:20.292Z,102286.25
2022-11-20T23:26:49.574Z,102281.94
2022-11-20T23:29:19.187Z,102284.59
2022-11-20T23:31:48.864Z,102280.44
2022-11-20T23:34:18.425Z,102279.06
2022-11-20T23:36:47.620Z,102283.38
2022-11-20T23:39:18.082Z,102285.46
2022-11-20T23:41:47.713Z,102285.73
2022-11-20T23:44:17.195Z,102286.41
2022-11-20T23:46:46.582Z,102288.80
2022-11-20T23:49:15.870Z,102287.20
2022-11-20T23:51:45.612Z,102287.64
2022-11-20T23:54:15.355Z,102288.14
2022-11-20T23:56:44.562Z,102293.86
2022-11-20T23:59:13.889Z,102295.46
